Time;durP1;ratioP1;P1;durP2;ratioP2;P2;SDS_P1;SDS_P2;PMS_P1;PMS_P2;Temp;Humidity;BMP_temperature;BMP_pressure;BME280_temperature;BME280_humidity;BME280_pressure;Samples;Min_cycle;Max_cycle;Signal;HPM_P1;HPM_P2
2022/01/27 00:01:46;;;;;;;60.05;31.80;;;;;;;4.91;72.79;102844.06;5052668;28;20496;-62
2022/01/27 00:06:33;;;;;;;57.80;31.90;;;;;;;5.11;72.20;102833.78;5045387;28;20060;-62
2022/01/27 00:09:11;;;;;;;53.00;31.30;;;;;;;5.20;72.59;102837.88;5055903;28;20048;-62
2022/01/27 00:11:42;;;;;;;57.03;31.65;;;;;;;5.13;72.39;102831.66;5054446;28;20045;-63
2022/01/27 00:14:11;;;;;;;61.58;33.53;;;;;;;5.00;72.66;102834.53;5054601;28;20064;-63
2022/01/27 00:16:42;;;;;;;61.97;32.58;;;;;;;5.26;72.22;102832.38;5056162;28;20076;-62
2022/01/27 00:19:13;;;;;;;54.95;31.90;;;;;;;5.30;72.27;102830.03;5056114;28;20040;-61
2022/01/27 00:21:40;;;;;;;56.08;32.17;;;;;;;5.27;72.18;102830.44;5023106;28;20060;-61
2022/01/27 00:24:08;;;;;;;64.70;33.60;;;;;;;5.19;72.08;102830.75;5035794;28;20041;-62
2022/01/27 00:26:35;;;;;;;54.80;32.20;;;;;;;5.17;72.60;102824.69;5035884;28;20416;-62
2022/01/27 00:29:02;;;;;;;57.05;31.48;;;;;;;5.07;72.48;102817.03;5050821;28;20512;-62
2022/01/27 00:31:30;;;;;;;59.40;32.47;;;;;;;5.16;71.96;102821.09;5034538;28;20050;-62
2022/01/27 00:33:58;;;;;;;54.90;30.88;;;;;;;5.02;73.13;102814.09;5035991;28;20060;-62
2022/01/27 00:36:25;;;;;;;57.97;30.83;;;;;;;5.14;72.55;102809.59;5036517;28;20057;-61
2022/01/27 00:38:52;;;;;;;56.90;31.58;;;;;;;5.39;71.79;102807.63;5035713;28;20057;-62
2022/01/27 00:41:21;;;;;;;51.95;29.23;;;;;;;5.44;71.58;102812.41;5035647;28;20057;-62
2022/01/27 00:43:49;;;;;;;53.97;30.85;;;;;;;5.47;71.51;102798.28;5035422;28;20045;-62
2022/01/27 00:46:18;;;;;;;53.22;30.05;;;;;;;5.38;71.21;102788.72;5035605;28;20092;-62
2022/01/27 00:48:46;;;;;;;52.85;31.02;;;;;;;5.37;71.29;102800.72;5035382;28;20384;-61
2022/01/27 00:51:20;;;;;;;50.03;29.33;;;;;;;5.34;71.53;102798.44;5035125;28;20057;-62
2022/01/27 00:54:18;;;;;;;52.00;29.52;;;;;;;5.07;72.17;102794.34;5035411;28;20060;-64
2022/01/27 00:56:51;;;;;;;50.17;29.13;;;;;;;5.09;72.63;102786.75;5035265;28;20069;-62
2022/01/27 01:02:18;;;;;;;53.67;30.10;;;;;;;5.18;72.01;102779.91;5035143;28;20064;-61
2022/01/27 01:04:52;;;;;;;51.92;29.17;;;;;;;5.33;71.79;102777.66;5035501;28;20049;-62
2022/01/27 01:07:20;;;;;;;55.15;31.25;;;;;;;5.20;71.70;102778.63;5053342;28;20054;-61
2022/01/27 01:15:31;;;;;;;57.83;31.65;;;;;;;5.18;72.29;102777.16;5055035;28;20380;-62
2022/01/27 01:18:01;;;;;;;55.00;31.00;;;;;;;5.44;72.16;102768.69;5055274;28;20048;-61
2022/01/27 01:34:27;;;;;;;66.55;34.33;;;;;;;5.14;72.62;102767.78;5029530;28;20045;-61
2022/01/27 01:36:56;;;;;;;64.35;33.47;;;;;;;5.10;73.60;102770.13;5035436;28;20530;-62
2022/01/27 01:39:27;;;;;;;66.45;34.30;;;;;;;5.05;74.07;102755.47;5034928;28;20377;-61
2022/01/27 01:41:54;;;;;;;;;;;;;;;5.01;73.94;102757.00;5035398;28;20072;-63
2022/01/27 01:44:22;;;;;;;70.72;33.22;;;;;;;5.08;73.91;102753.13;5033341;28;19925;-62
2022/01/27 01:46:50;;;;;;;70.65;34.25;;;;;;;5.10;73.93;102756.47;5034688;28;20068;-63
2022/01/27 01:49:18;;;;;;;63.88;33.70;;;;;;;5.33;73.23;102747.59;5034666;28;20411;-62
2022/01/27 01:51:45;;;;;;;74.72;34.00;;;;;;;5.21;73.63;102755.69;5026278;28;20590;-62
2022/01/27 01:54:14;;;;;;;70.60;34.53;;;;;;;5.29;73.75;102749.09;5027319;28;20408;-62
2022/01/27 01:56:43;;;;;;;69.90;35.22;;;;;;;5.13;74.04;102752.44;5033512;28;20045;-62
2022/01/27 01:59:10;;;;;;;72.22;35.00;;;;;;;5.26;73.73;102734.00;5049609;28;20396;-62
2022/01/27 02:01:38;;;;;;;72.65;36.65;;;;;;;5.22;73.61;102729.22;5034462;28;20060;-62
2022/01/27 02:04:08;;;;;;;71.82;35.47;;;;;;;5.13;74.15;102723.22;5035130;28;20053;-63
2022/01/27 02:06:49;;;;;;;78.03;36.22;;;;;;;4.95;74.75;102722.41;5046896;28;20795;-62
2022/01/27 02:10:07;;;;;;;79.80;36.35;;;;;;;4.95;75.13;102733.34;5046339;28;20705;-62
2022/01/27 02:18:07;;;;;;;74.60;34.55;;;;;;;5.11;74.46;102719.09;5034571;28;20046;-63
2022/01/27 02:20:37;;;;;;;80.03;36.15;;;;;;;4.99;74.79;102715.41;5034224;28;20053;-62
2022/01/27 02:23:06;;;;;;;71.85;34.85;;;;;;;4.98;74.49;102720.06;5034217;28;20068;-64
2022/01/27 02:25:33;;;;;;;67.93;34.20;;;;;;;4.97;75.01;102707.47;5033649;28;20050;-62
2022/01/27 02:28:00;;;;;;;73.20;34.60;;;;;;;5.06;74.94;102708.81;5036811;28;20724;-61
2022/01/27 02:30:28;;;;;;;78.40;36.50;;;;;;;5.03;74.44;102714.75;5032944;28;20401;-61
2022/01/27 02:32:55;;;;;;;72.65;34.38;;;;;;;4.92;74.81;102709.19;5016875;28;20512;-61
2022/01/27 02:35:25;;;;;;;68.70;34.30;;;;;;;5.09;74.95;102704.81;5018346;28;20421;-62
2022/01/27 02:37:53;;;;;;;76.68;34.63;;;;;;;5.12;74.36;102709.81;5018210;28;20423;-61
2022/01/27 02:40:36;;;;;;;73.28;33.83;;;;;;;5.21;73.90;102706.53;5018048;28;20050;-63
2022/01/27 02:43:04;;;;;;;69.95;34.45;;;;;;;5.11;74.11;102702.69;5017621;28;20054;-62
2022/01/27 02:45:49;;;;;;;73.28;35.58;;;;;;;4.97;75.32;102693.00;5018181;28;20056;-62
2022/01/27 02:48:17;;;;;;;72.40;33.40;;;;;;;5.13;74.35;102697.81;5018018;28;20045;-63
2022/01/27 02:50:44;;;;;;;69.90;33.63;;;;;;;4.96;74.99;102691.31;5017554;28;20050;-62
2022/01/27 02:53:11;;;;;;;71.82;34.47;;;;;;;4.84;75.23;102688.50;5016667;28;20418;-63
2022/01/27 02:55:39;;;;;;;71.93;34.33;;;;;;;5.02;74.78;102691.22;5016277;28;20081;-63
2022/01/27 02:58:06;;;;;;;74.13;35.13;;;;;;;4.95;75.13;102690.47;5017544;28;20061;-64
2022/01/27 03:00:33;;;;;;;67.68;32.38;;;;;;;5.06;74.59;102694.31;5017853;28;20049;-63
2022/01/27 03:03:01;;;;;;;71.28;34.40;;;;;;;5.04;74.90;102683.63;5017718;28;20050;-63
2022/01/27 03:05:28;;;;;;;70.43;33.95;;;;;;;5.06;74.61;102686.97;5023505;28;20503;-62
2022/01/27 03:07:56;;;;;;;68.43;33.88;;;;;;;4.97;75.03;102693.81;5057598;28;20064;-62
2022/01/27 03:10:27;;;;;;;68.88;32.58;;;;;;;5.11;75.00;102692.59;5055845;28;20152;-62
2022/01/27 03:12:59;;;;;;;67.82;33.20;;;;;;;5.17;74.33;102693.56;5055765;28;20053;-62
2022/01/27 03:15:27;;;;;;;68.38;33.90;;;;;;;5.27;73.93;102680.19;5055945;28;20053;-62
2022/01/27 03:17:55;;;;;;;75.70;33.75;;;;;;;4.94;74.69;102674.31;5038603;28;20061;-62
2022/01/27 03:20:31;;;;;;;73.20;34.55;;;;;;;5.21;74.75;102681.94;5056916;28;20060;-62
2022/01/27 03:23:00;;;;;;;70.78;34.30;;;;;;;5.30;74.12;102669.63;5056002;28;20060;-62
2022/01/27 03:25:27;;;;;;;72.93;34.17;;;;;;;5.26;73.56;102671.19;5041850;28;20046;-62
2022/01/27 03:27:55;;;;;;;70.63;33.90;;;;;;;5.25;73.35;102676.84;5017212;28;20440;-63
2022/01/27 03:30:22;;;;;;;77.78;35.55;;;;;;;5.24;73.56;102677.94;5032250;28;20046;-62
2022/01/27 03:32:49;;;;;;;76.20;35.47;;;;;;;5.20;73.65;102676.72;5017717;28;20069;-63
2022/01/27 03:35:16;;;;;;;73.72;33.63;;;;;;;5.06;74.36;102681.50;5017267;28;20067;-61
2022/01/27 03:37:44;;;;;;;72.55;35.42;;;;;;;4.97;74.98;102677.41;5016602;28;20501;-62
2022/01/27 03:40:11;;;;;;;75.07;34.72;;;;;;;5.04;74.59;102674.63;5015492;28;20068;-62
2022/01/27 03:42:45;;;;;;;71.35;34.67;;;;;;;5.02;74.79;102683.03;5015363;28;20057;-62
2022/01/27 03:45:14;;;;;;;69.60;32.55;;;;;;;5.05;74.75;102679.00;5016978;28;20050;-61
2022/01/27 03:47:42;;;;;;;75.63;34.90;;;;;;;4.96;75.31;102681.22;5017062;28;20054;-61
2022/01/27 03:50:10;;;;;;;72.13;34.50;;;;;;;4.91;75.22;102674.78;5016989;28;20044;-62
2022/01/27 03:52:37;;;;;;;79.40;35.30;;;;;;;4.93;75.28;102672.66;5016751;28;20514;-62
2022/01/27 03:55:05;;;;;;;76.70;34.70;;;;;;;5.08;74.60;102673.94;5016893;28;20046;-61
2022/01/27 03:57:32;;;;;;;71.15;34.25;;;;;;;5.07;75.05;102677.75;5016725;28;20072;-62
2022/01/27 03:59:59;;;;;;;76.95;35.08;;;;;;;5.03;74.87;102672.94;5015812;28;20056;-62
2022/01/27 04:02:26;;;;;;;70.43;32.90;;;;;;;4.94;75.37;102679.78;5031349;28;20054;-61
2022/01/27 04:04:54;;;;;;;71.40;33.72;;;;;;;5.06;75.13;102675.22;5031857;28;20066;-61
2022/01/27 04:07:22;;;;;;;71.72;34.05;;;;;;;5.30;74.26;102677.81;5053343;28;20045;-61
2022/01/27 04:09:49;;;;;;;73.35;34.53;;;;;;;5.14;74.34;102674.91;5056340;28;20041;-62
2022/01/27 04:12:16;;;;;;;70.70;34.05;;;;;;;4.88;75.32;102676.06;5055982;28;20044;-62
2022/01/27 04:14:44;;;;;;;70.53;33.45;;;;;;;5.02;75.20;102666.63;5025541;28;20065;-62
2022/01/27 04:17:11;;;;;;;76.07;35.80;;;;;;;5.03;75.29;102670.22;5016421;28;20053;-62
2022/01/27 04:19:39;;;;;;;79.97;36.85;;;;;;;5.06;74.48;102670.59;5016356;28;20045;-62
2022/01/27 04:22:06;;;;;;;77.05;35.90;;;;;;;4.96;74.87;102667.56;5016472;28;20493;-62
2022/01/27 04:24:34;;;;;;;72.20;35.25;;;;;;;4.89;75.01;102665.97;5016039;28;20062;-61
2022/01/27 04:27:06;;;;;;;74.65;34.80;;;;;;;4.85;75.88;102670.22;5016327;28;20053;-62
2022/01/27 04:29:37;;;;;;;72.35;34.67;;;;;;;5.13;75.31;102663.16;5015928;28;20065;-62
2022/01/27 04:32:08;;;;;;;72.28;33.90;;;;;;;5.22;74.96;102667.22;5014665;28;20065;-61
2022/01/27 04:34:38;;;;;;;70.25;33.55;;;;;;;5.25;74.44;102669.50;5015968;28;20049;-62
2022/01/27 04:37:07;;;;;;;67.28;33.53;;;;;;;5.36;74.03;102671.47;5015876;28;20405;-62
2022/01/27 04:39:56;;;;;;;70.85;33.65;;;;;;;5.07;75.21;102672.28;5015612;28;20049;-62
2022/01/27 04:42:41;;;;;;;67.80;32.83;;;;;;;5.11;74.95;102673.47;5015345;28;20045;-62
2022/01/27 04:45:17;;;;;;;69.53;33.83;;;;;;;5.07;75.06;102676.91;5015793;28;20057;-62
2022/01/27 04:47:48;;;;;;;70.60;34.00;;;;;;;5.25;74.72;102674.97;5015767;28;20060;-62
2022/01/27 04:50:16;;;;;;;69.10;32.75;;;;;;;5.36;73.89;102673.34;5015343;28;20042;-62
2022/01/27 04:52:46;;;;;;;70.47;34.30;;;;;;;5.45;73.89;102664.59;5015435;28;20088;-62
2022/01/27 04:55:17;;;;;;;67.13;32.45;;;;;;;5.30;74.39;102668.81;5015575;28;20046;-63
2022/01/27 04:57:45;;;;;;;63.28;31.85;;;;;;;5.18;74.02;102670.63;5015596;28;20429;-62
2022/01/27 05:00:16;;;;;;;63.95;31.23;;;;;;;5.17;74.33;102668.97;5015752;28;20050;-62
2022/01/27 05:02:48;;;;;;;72.28;35.55;;;;;;;5.20;74.83;102655.69;5013425;28;20049;-61
2022/01/27 05:05:20;;;;;;;81.13;41.38;;;;;;;5.20;74.53;102663.91;5018310;28;20488;-62
2022/01/27 05:07:56;;;;;;;72.25;36.00;;;;;;;5.19;74.40;102658.66;5021902;28;20056;-61
2022/01/27 05:10:28;;;;;;;65.05;32.45;;;;;;;5.40;73.95;102656.28;5055095;28;20049;-62
2022/01/27 05:13:02;;;;;;;64.85;32.72;;;;;;;5.26;73.98;102660.25;5054610;28;20045;-61
2022/01/27 05:15:29;;;;;;;68.47;32.20;;;;;;;5.15;74.55;102650.09;5055162;28;20428;-62
2022/01/27 05:17:56;;;;;;;65.40;31.55;;;;;;;5.04;74.53;102661.78;5055246;28;20052;-61
2022/01/27 05:20:24;;;;;;;68.70;31.77;;;;;;;5.25;74.36;102649.53;5054912;28;20059;-61
2022/01/27 05:22:53;;;;;;;65.72;32.08;;;;;;;5.10;74.35;102655.41;5054660;28;20059;-61
2022/01/27 05:25:20;;;;;;;69.18;31.42;;;;;;;5.17;74.47;102652.59;5053753;28;20389;-64
2022/01/27 05:27:47;;;;;;;66.43;31.75;;;;;;;5.07;74.60;102650.44;5053361;28;20056;-61
2022/01/27 05:30:14;;;;;;;66.13;32.58;;;;;;;5.17;74.58;102655.31;5054985;28;20049;-61
2022/01/27 05:32:42;;;;;;;72.75;30.30;;;;;;;5.07;74.95;102647.69;5055008;28;20051;-62
2022/01/27 05:35:09;;;;;;;61.72;30.00;;;;;;;5.23;74.39;102647.03;5053611;28;20056;-61
2022/01/27 05:37:36;;;;;;;64.00;31.45;;;;;;;5.17;74.48;102653.44;5054896;28;20506;-62
2022/01/27 05:40:05;;;;;;;64.97;31.15;;;;;;;5.33;73.85;102652.81;5053938;28;20056;-62
2022/01/27 05:42:32;;;;;;;63.83;31.23;;;;;;;5.34;73.83;102653.63;5054374;28;20052;-61
2022/01/27 05:44:59;;;;;;;63.58;31.02;;;;;;;5.26;74.22;102652.06;5055027;28;20049;-63
2022/01/27 05:47:27;;;;;;;66.75;31.77;;;;;;;5.02;74.85;102654.91;5054926;28;20049;-63
2022/01/27 05:49:54;;;;;;;62.65;30.25;;;;;;;5.20;74.54;102649.38;5054888;28;20057;-62
2022/01/27 05:52:21;;;;;;;67.90;32.38;;;;;;;4.97;74.67;102647.38;5054517;28;20049;-61
2022/01/27 05:54:49;;;;;;;60.05;31.08;;;;;;;4.99;75.37;102636.22;5038287;28;20092;-62
2022/01/27 05:57:16;;;;;;;63.35;31.48;;;;;;;4.97;75.29;102638.38;5034322;28;20072;-61
2022/01/27 05:59:43;;;;;;;61.25;30.48;;;;;;;5.18;74.53;102635.97;5034553;28;20041;-62
2022/01/27 06:02:11;;;;;;;59.05;30.17;;;;;;;5.09;74.61;102642.81;5036016;28;20061;-62
2022/01/27 06:04:38;;;;;;;60.75;30.08;;;;;;;5.23;73.97;102640.75;5038670;28;20054;-63
2022/01/27 06:07:05;;;;;;;62.47;30.55;;;;;;;5.15;74.23;102647.38;5054784;28;20075;-62
2022/01/27 06:09:33;;;;;;;60.22;30.38;;;;;;;5.27;74.02;102639.22;5057538;28;20048;-62
2022/01/27 06:12:00;;;;;;;60.90;30.20;;;;;;;5.15;74.16;102649.25;5053759;28;20044;-62
2022/01/27 06:14:27;;;;;;;64.18;31.42;;;;;;;5.24;74.14;102654.19;5034041;28;20041;-62
2022/01/27 06:16:55;;;;;;;59.53;29.92;;;;;;;5.40;73.97;102663.63;5018973;28;20050;-61
2022/01/27 06:19:27;;;;;;;59.03;29.80;;;;;;;5.31;73.78;102665.84;5018960;28;20048;-63
2022/01/27 06:21:55;;;;;;;54.80;29.40;;;;;;;5.46;73.89;102663.53;5001739;28;20053;-62
2022/01/27 06:24:23;;;;;;;56.50;27.83;;;;;;;5.38;72.98;102666.59;5018284;28;20045;-62
2022/01/27 06:26:50;;;;;;;57.33;29.67;;;;;;;5.05;74.07;102668.94;5017058;28;20064;-61
2022/01/27 06:29:17;;;;;;;55.35;27.92;;;;;;;4.84;74.99;102672.13;5017992;28;20058;-62
2022/01/27 06:31:46;;;;;;;62.88;30.15;;;;;;;4.99;75.22;102669.00;5017062;28;20396;-62
2022/01/27 06:34:14;;;;;;;57.35;29.08;;;;;;;5.20;74.30;102661.16;5018439;28;20232;-62
2022/01/27 06:36:41;;;;;;;60.42;29.75;;;;;;;5.19;74.49;102667.69;5018592;28;20057;-62
2022/01/27 06:39:08;;;;;;;58.10;28.33;;;;;;;5.11;74.47;102676.19;5018390;28;20064;-61
2022/01/27 06:41:39;;;;;;;59.20;28.13;;;;;;;5.33;74.07;102676.53;5018604;28;20042;-64
2022/01/27 06:44:06;;;;;;;51.67;27.35;;;;;;;5.50;73.31;102672.09;5040592;28;20049;-61
2022/01/27 06:46:38;;;;;;;55.58;29.20;;;;;;;5.37;73.54;102672.28;5039638;28;20049;-62
2022/01/27 06:49:16;;;;;;;57.90;28.92;;;;;;;5.43;73.06;102682.28;5038134;28;20033;-62
2022/01/27 06:51:54;;;;;;;53.33;27.40;;;;;;;5.31;73.29;102668.59;5037951;28;20072;-63
2022/01/27 06:54:36;;;;;;;55.55;28.00;;;;;;;5.22;73.18;102682.78;5003042;28;20374;-61
2022/01/27 06:57:05;;;;;;;56.70;27.63;;;;;;;5.39;73.46;102672.88;5018494;28;20061;-61
2022/01/27 06:59:34;;;;;;;58.50;28.80;;;;;;;5.40;73.22;102677.28;5018489;28;20443;-63
2022/01/27 07:02:02;;;;;;;54.80;26.98;;;;;;;5.39;72.86;102678.34;5028945;28;20054;-61
2022/01/27 07:04:30;;;;;;;55.63;28.45;;;;;;;5.37;73.18;102684.03;5037470;28;20080;-65
2022/01/27 07:06:57;;;;;;;56.35;29.50;;;;;;;5.33;73.08;102677.38;5052683;28;20056;-63
2022/01/27 07:09:25;;;;;;;49.45;26.45;;;;;;;5.12;73.82;102687.97;5040179;28;20058;-62
2022/01/27 07:11:52;;;;;;;55.08;28.48;;;;;;;5.39;73.20;102681.91;5034385;28;20413;-62
2022/01/27 07:14:19;;;;;;;54.80;27.80;;;;;;;5.23;73.54;102688.00;5026286;28;20061;-62
2022/01/27 07:16:47;;;;;;;49.92;26.52;;;;;;;5.54;72.37;102682.31;5025446;28;20042;-63
2022/01/27 07:19:14;;;;;;;52.58;27.55;;;;;;;5.19;73.28;102695.03;5020493;28;20053;-61
2022/01/27 07:21:41;;;;;;;54.65;27.60;;;;;;;5.43;72.78;102690.47;5032558;28;20057;-62
2022/01/27 07:24:09;;;;;;;55.30;27.83;;;;;;;5.53;72.51;102688.03;5022145;28;20062;-62
2022/01/27 07:26:36;;;;;;;50.47;27.10;;;;;;;5.44;72.62;102681.25;5020453;28;20061;-61
2022/01/27 07:29:03;;;;;;;59.95;32.45;;;;;;;5.77;71.79;102683.47;5028458;28;20089;-61
2022/01/27 07:31:31;;;;;;;57.58;28.85;;;;;;;5.42;72.64;102686.09;5027412;28;20056;-62
2022/01/27 07:33:58;;;;;;;51.33;27.15;;;;;;;5.43;72.60;102685.00;5028816;28;20045;-62
2022/01/27 07:36:28;;;;;;;57.22;29.23;;;;;;;5.27;73.47;102686.50;5024199;28;20061;-62
2022/01/27 07:38:55;;;;;;;54.83;28.40;;;;;;;5.47;72.54;102683.50;5035067;28;20488;-63
2022/01/27 07:41:22;;;;;;;58.97;30.52;;;;;;;5.37;73.10;102680.50;5033339;28;20065;-63
2022/01/27 07:43:50;;;;;;;56.08;29.13;;;;;;;5.48;73.36;102683.25;5036531;28;20041;-61
2022/01/27 07:46:17;;;;;;;50.45;26.52;;;;;;;6.19;80.48;102671.47;5043584;28;20052;-60
2022/01/27 07:48:44;;;;;;;54.70;27.98;;;;;;;6.46;73.65;102667.16;5032835;28;20052;-60
2022/01/27 07:51:11;;;;;;;53.35;27.98;;;;;;;6.03;71.19;102669.41;5015952;28;20057;-62
2022/01/27 07:53:39;;;;;;;63.53;33.67;;;;;;;5.92;72.36;102684.72;5025862;28;20053;-62
2022/01/27 07:56:27;;;;;;;65.28;32.63;;;;;;;5.66;72.74;102677.75;5027232;28;20057;-63
2022/01/27 07:58:54;;;;;;;61.47;32.95;;;;;;;5.82;72.46;102686.34;5034823;28;20060;-62
2022/01/27 08:01:21;;;;;;;67.20;31.17;;;;;;;5.71;72.53;102675.16;5034116;28;20061;-63
2022/01/27 08:03:49;;;;;;;57.00;29.67;;;;;;;5.78;71.98;102680.50;5016764;28;20058;-63
2022/01/27 08:06:18;;;;;;;51.78;28.70;;;;;;;5.71;72.11;102682.50;5029172;28;20041;-63
2022/01/27 08:08:45;;;;;;;52.95;27.90;;;;;;;5.55;72.53;102680.44;5040026;28;20061;-64
2022/01/27 08:11:13;;;;;;;54.85;29.67;;;;;;;5.58;72.46;102690.88;5038155;28;20512;-62
2022/01/27 08:13:40;;;;;;;60.85;29.08;;;;;;;5.73;72.92;102692.16;5017894;28;20049;-62
2022/01/27 08:16:08;;;;;;;56.30;29.52;;;;;;;5.53;72.90;102693.50;5036227;28;20054;-63
2022/01/27 08:18:46;;;;;;;57.75;28.20;;;;;;;5.61;72.63;102698.66;5019678;28;20057;-63
2022/01/27 08:21:14;;;;;;;56.42;28.25;;;;;;;5.52;72.69;102698.16;5028392;28;20495;-63
2022/01/27 08:23:43;;;;;;;61.10;29.85;;;;;;;5.28;73.23;102693.63;5043277;28;20052;-63
2022/01/27 08:26:15;;;;;;;58.65;29.75;;;;;;;5.53;73.69;102693.50;5035975;28;20412;-63
2022/01/27 08:31:11;;;;;;;65.53;35.00;;;;;;;5.57;72.99;102700.16;5036568;28;20049;-62
2022/01/27 08:33:40;;;;;;;64.03;32.63;;;;;;;5.67;72.72;102700.44;5046676;28;20049;-62
2022/01/27 08:36:09;;;;;;;55.13;28.60;;;;;;;5.72;72.80;102700.56;5018081;28;20049;-63
2022/01/27 08:38:43;;;;;;;52.17;27.90;;;;;;;5.88;72.28;102697.19;5022046;28;20412;-62
2022/01/27 08:41:11;;;;;;;50.25;27.40;;;;;;;5.66;72.43;102705.09;5025624;28;20049;-63
2022/01/27 08:43:38;;;;;;;59.72;28.63;;;;;;;5.48;73.23;102705.13;5028747;28;20045;-63
2022/01/27 08:46:05;;;;;;;59.72;27.85;;;;;;;5.71;72.99;102698.91;5027755;28;20048;-63
2022/01/27 08:48:35;;;;;;;58.80;28.55;;;;;;;5.95;72.19;102691.63;5023577;28;20045;-63
2022/01/27 08:51:04;;;;;;;59.42;27.58;;;;;;;5.83;72.32;102701.69;5024042;28;20061;-63
2022/01/27 08:53:48;;;;;;;62.30;28.25;;;;;;;5.69;72.22;102704.63;5027879;28;20400;-64
2022/01/27 08:56:19;;;;;;;59.90;28.50;;;;;;;5.58;72.94;102699.94;5015743;28;20064;-64
2022/01/27 08:58:47;;;;;;;58.28;28.23;;;;;;;5.64;73.25;102698.16;5026076;28;20053;-63
2022/01/27 09:01:14;;;;;;;61.38;29.77;;;;;;;5.70;72.81;102694.53;5033670;28;20069;-62
2022/01/27 09:03:42;;;;;;;56.90;27.25;;;;;;;5.73;72.86;102686.69;4996084;28;20043;-61
2022/01/27 09:06:10;;;;;;;53.20;28.38;;;;;;;5.69;72.69;102690.94;5016931;28;20045;-62
2022/01/27 09:08:42;;;;;;;57.28;29.88;;;;;;;5.82;72.65;102683.59;5003818;28;20049;-63
2022/01/27 09:11:09;;;;;;;59.33;30.75;;;;;;;5.84;72.64;102676.03;5014858;28;20052;-62
2022/01/27 09:13:38;;;;;;;49.08;27.35;;;;;;;6.02;72.08;102663.09;5009650;28;20050;-63
2022/01/27 09:16:06;;;;;;;55.47;28.13;;;;;;;6.16;71.76;102659.06;5038812;28;20042;-63
2022/01/27 09:18:34;;;;;;;55.35;26.98;;;;;;;6.14;71.22;102660.38;5005170;28;20057;-63
2022/01/27 09:21:06;;;;;;;67.18;29.60;;;;;;;5.92;72.24;102662.84;5002441;28;20424;-66
2022/01/27 09:23:33;;;;;;;56.38;28.52;;;;;;;6.06;72.02;102661.56;5015583;28;20060;-62
2022/01/27 09:26:05;;;;;;;53.13;27.17;;;;;;;6.13;72.00;102666.91;4997090;28;20054;-61
2022/01/27 09:28:33;;;;;;;53.95;28.20;;;;;;;6.09;71.73;102666.56;5000693;28;20448;-62
2022/01/27 09:31:01;;;;;;;52.17;27.65;;;;;;;6.06;72.20;102661.56;5000872;28;20054;-63
2022/01/27 09:33:29;;;;;;;58.70;27.00;;;;;;;6.14;71.86;102655.75;5013287;28;20041;-64
2022/01/27 09:35:56;;;;;;;53.03;27.45;;;;;;;6.13;71.59;102658.72;5015239;28;20054;-63
2022/01/27 09:38:23;;;;;;;49.72;26.75;;;;;;;6.24;71.57;102663.38;5014433;28;20516;-63
2022/01/27 09:40:51;;;;;;;56.15;28.45;;;;;;;6.32;70.97;102669.31;5014252;28;20057;-63
2022/01/27 09:43:19;;;;;;;55.42;27.95;;;;;;;6.31;71.40;102662.16;5011421;28;20056;-61
2022/01/27 09:45:47;;;;;;;57.28;28.73;;;;;;;6.36;70.88;102654.06;5014548;28;20053;-63
2022/01/27 09:48:16;;;;;;;62.60;34.95;;;;;;;6.40;71.65;102657.16;5035069;28;20521;-61
2022/01/27 09:53:16;;;;;;;57.08;29.15;;;;;;;6.28;71.76;102662.66;5007219;28;20050;-63
2022/01/27 09:55:44;;;;;;;53.90;27.08;;;;;;;6.49;71.04;102664.78;5014419;28;20533;-63
2022/01/27 09:58:12;;;;;;;52.75;26.63;;;;;;;6.48;71.08;102652.19;5014674;28;20058;-62
2022/01/27 10:00:40;;;;;;;53.17;25.83;;;;;;;6.47;71.08;102658.72;5014579;28;20057;-62
2022/01/27 10:03:13;;;;;;;55.42;27.42;;;;;;;6.37;70.80;102654.91;5047113;28;20140;-62
2022/01/27 10:05:42;;;;;;;56.67;27.52;;;;;;;6.79;70.39;102654.53;5053318;28;20044;-62
2022/01/27 10:08:18;;;;;;;52.47;26.50;;;;;;;6.85;70.20;102647.25;5053065;28;20059;-63
2022/01/27 10:10:53;;;;;;;50.88;25.85;;;;;;;6.76;70.02;102654.16;5044668;28;20048;-61
2022/01/27 10:13:38;;;;;;;55.38;27.73;;;;;;;6.77;70.20;102647.59;5035033;28;20045;-62
2022/01/27 10:16:07;;;;;;;54.13;27.48;;;;;;;6.78;69.89;102655.56;5047590;28;20239;-62
2022/01/27 10:18:41;;;;;;;49.70;27.17;;;;;;;6.82;69.95;102655.94;5032977;28;20149;-62
2022/01/27 10:21:13;;;;;;;51.78;26.95;;;;;;;6.57;70.40;102655.38;5034003;28;20049;-63
2022/01/27 10:23:41;;;;;;;53.00;27.42;;;;;;;6.56;71.05;102654.53;5033006;28;20053;-66
2022/01/27 10:26:21;;;;;;;59.25;27.08;;;;;;;6.89;70.56;102658.56;5033650;28;20050;-65
2022/01/27 10:29:01;;;;;;;48.67;26.27;;;;;;;7.13;69.44;102660.16;5033903;28;20053;-63
2022/01/27 10:31:28;;;;;;;49.20;26.52;;;;;;;7.11;69.56;102662.28;5033734;28;20072;-65
2022/01/27 10:34:07;;;;;;;51.22;27.05;;;;;;;7.16;68.96;102668.72;5028570;28;20045;-63
2022/01/27 10:36:40;;;;;;;50.55;25.85;;;;;;;7.59;68.74;102657.19;5033007;28;20408;-64
2022/01/27 10:39:15;;;;;;;50.38;26.05;;;;;;;7.42;68.35;102651.69;5039103;28;20053;-64
2022/01/27 10:42:07;;;;;;;54.08;25.58;;;;;;;7.32;68.90;102653.41;5027923;28;20065;-65
2022/01/27 10:44:38;;;;;;;51.47;26.85;;;;;;;7.35;69.25;102651.00;5048809;28;20045;-65
2022/01/27 10:47:12;;;;;;;52.08;27.05;;;;;;;7.54;68.86;102641.50;5026748;28;20046;-65
2022/01/27 10:49:51;;;;;;;49.30;27.00;;;;;;;7.15;68.63;102647.84;5001428;28;20058;-67
2022/01/27 10:52:47;;;;;;;54.05;26.83;;;;;;;7.43;68.86;102638.78;5028233;28;20052;-64
2022/01/27 11:03:54;;;;;;;52.15;26.90;;;;;;;7.85;67.78;102640.09;5914903;22;20080;-66
2022/01/27 11:06:25;;;;;;;53.63;26.15;;;;;;;8.04;66.67;102635.22;5028291;28;20499;-67
2022/01/27 11:08:56;;;;;;;52.45;27.67;;;;;;;7.64;67.49;102627.97;5043366;28;20052;-65
2022/01/27 11:11:26;;;;;;;49.60;26.27;;;;;;;7.58;68.35;102630.88;5033852;28;20057;-62
2022/01/27 11:13:55;;;;;;;50.60;28.08;;;;;;;7.62;68.11;102641.09;5047357;28;20399;-62
2022/01/27 11:16:29;;;;;;;50.47;27.20;;;;;;;7.67;67.86;102645.84;5043728;28;20041;-64
2022/01/27 11:19:11;;;;;;;51.17;27.58;;;;;;;7.73;68.03;102650.31;5049964;28;20634;-63
2022/01/27 11:21:41;;;;;;;52.65;27.15;;;;;;;7.43;69.17;102649.75;5039118;28;20060;-63
2022/01/27 11:24:16;;;;;;;;;;;;;;;7.40;68.91;102653.00;5024449;28;20050;-64
2022/01/27 11:26:45;;;;;;;59.40;27.80;;;;;;;7.59;68.68;102647.06;5034876;28;19928;-64
2022/01/27 11:29:14;;;;;;;61.90;31.65;;;;;;;7.66;68.37;102644.16;5036810;28;20045;-65
2022/01/27 11:32:03;;;;;;;53.72;28.48;;;;;;;7.86;68.05;102639.84;5035807;28;20044;-66
2022/01/27 11:34:48;;;;;;;51.78;27.42;;;;;;;7.77;68.32;102637.78;5025660;28;20045;-63
2022/01/27 11:37:18;;;;;;;52.90;28.50;;;;;;;7.94;67.92;102633.13;5036368;28;20041;-64
2022/01/27 11:39:50;;;;;;;;;;;;;;;7.68;67.89;102625.56;5053593;28;20056;-65
2022/01/27 11:42:42;;;;;;;53.17;29.08;;;;;;;7.70;68.75;102621.50;5026367;28;19928;-64
2022/01/27 11:45:28;;;;;;;55.58;30.02;;;;;;;7.81;68.41;102625.25;5033856;28;20034;-66
2022/01/27 11:48:00;;;;;;;55.38;28.73;;;;;;;7.41;68.82;102619.84;5033892;28;20053;-66
2022/01/27 11:50:49;;;;;;;53.75;28.95;;;;;;;7.58;69.21;102617.16;5036744;28;20083;-65
2022/01/27 11:53:31;;;;;;;54.10;28.08;;;;;;;7.81;69.63;102606.03;5044057;28;20048;-63
2022/01/27 11:56:06;;;;;;;56.03;28.45;;;;;;;7.76;68.18;102595.81;5056683;28;20510;-64
2022/01/27 11:58:53;;;;;;;55.80;31.35;;;;;;;7.90;67.54;102597.13;5033668;28;20045;-62
2022/01/27 12:01:24;;;;;;;51.60;28.08;;;;;;;8.10;67.70;102591.13;5037246;28;20061;-63
2022/01/27 12:04:11;;;;;;;50.80;26.90;;;;;;;8.22;67.02;102591.88;5033629;28;20050;-64
2022/01/27 12:06:39;;;;;;;53.28;28.83;;;;;;;8.36;67.14;102597.84;5034169;28;20057;-64
2022/01/27 12:09:21;;;;;;;57.45;30.13;;;;;;;8.23;67.02;102595.44;5033853;28;20068;-64
2022/01/27 12:11:51;;;;;;;52.08;27.05;;;;;;;8.27;67.04;102591.13;5035515;28;20057;-63
2022/01/27 12:14:25;;;;;;;51.90;26.90;;;;;;;8.15;67.32;102587.63;5016350;28;20058;-62
2022/01/27 12:17:07;;;;;;;50.92;27.15;;;;;;;8.30;67.13;102583.22;5033621;28;20423;-64